createdAt,value
2023-10-10T00:00:49.173Z,100866.47
2023-10-10T00:03:18.850Z,100699.66
2023-10-10T00:05:48.320Z,100873.44
2023-10-10T00:08:18.390Z,100870.00
2023-10-10T00:10:52.382Z,100638.81
2023-10-10T00:13:20.786Z,100765.91
2023-10-10T00:15:52.488Z,100873.44
2023-10-10T00:18:21.114Z,100868.97
2023-10-10T00:21:07.367Z,100871.78
2023-10-10T00:23:42.929Z,100869.25
2023-10-10T00:26:16.022Z,100862.25
2023-10-10T00:28:53.400Z,100863.19
2023-10-10T00:31:21.581Z,100576.53
2023-10-10T00:33:51.745Z,100702.59
2023-10-10T00:36:29.674Z,100725.53
2023-10-10T00:39:00.124Z,100885.63
2023-10-10T00:41:29.045Z,100867.78
2023-10-10T00:43:59.938Z,100881.28
2023-10-10T00:46:30.297Z,100608.50
2023-10-10T00:49:02.549Z,100884.97
2023-10-10T00:51:32.822Z,100871.69
2023-10-10T00:54:14.539Z,100874.28
2023-10-10T00:56:45.823Z,100867.09
2023-10-10T00:59:17.728Z,100874.13
2023-10-10T01:01:47.153Z,100867.88
2023-10-10T01:04:29.686Z,100867.00
2023-10-10T01:07:00.161Z,100867.88
2023-10-10T01:09:35.197Z,100721.34
2023-10-10T01:12:05.910Z,100859.91
2023-10-10T01:14:34.067Z,100708.13
2023-10-10T01:17:03.908Z,100865.22
2023-10-10T01:19:32.962Z,100867.00
2023-10-10T01:22:05.356Z,100813.94
2023-10-10T01:24:33.535Z,100867.91
2023-10-10T01:27:18.533Z,100822.06
2023-10-10T01:29:51.600Z,100853.81
2023-10-10T01:32:21.450Z,100852.03
2023-10-10T01:34:49.971Z,100848.44
2023-10-10T01:37:25.930Z,100815.72
2023-10-10T01:40:11.231Z,100849.34
2023-10-10T01:42:46.124Z,100757.47
2023-10-10T01:45:19.884Z,100848.50
2023-10-10T01:47:58.026Z,100852.84
2023-10-10T01:50:29.691Z,100852.09
2023-10-10T01:52:59.253Z,100794.75
2023-10-10T01:55:28.427Z,100470.88
2023-10-10T01:57:58.795Z,100814.06
2023-10-10T02:00:36.197Z,100724.91
2023-10-10T02:03:05.900Z,100832.72
2023-10-10T02:05:48.294Z,100838.00
2023-10-10T02:08:18.774Z,100778.84
2023-10-10T02:10:51.741Z,100841.59
2023-10-10T02:13:21.023Z,100669.44
2023-10-10T02:15:52.928Z,100717.06
2023-10-10T02:18:33.420Z,100849.63
2023-10-10T02:21:07.521Z,100823.06
2023-10-10T02:23:36.769Z,100835.47
2023-10-10T02:26:15.713Z,100842.53
2023-10-10T02:28:50.545Z,100824.84
2023-10-10T02:31:20.436Z,100478.00
2023-10-10T02:33:56.244Z,100831.88
2023-10-10T02:36:32.015Z,100667.72
2023-10-10T02:39:19.849Z,100837.31
2023-10-10T02:41:51.982Z,100826.75
2023-10-10T02:44:39.559Z,100786.09
2023-10-10T02:47:08.009Z,100783.38
2023-10-10T02:49:39.175Z,100841.75
2023-10-10T02:52:09.251Z,100835.56
2023-10-10T02:54:45.113Z,100828.50
2023-10-10T02:57:32.255Z,100837.34
2023-10-10T03:00:29.421Z,100620.19
2023-10-10T03:03:00.057Z,100702.31
2023-10-10T03:05:40.780Z,100844.56
2023-10-10T03:08:16.066Z,100775.63
2023-10-10T03:10:57.299Z,100708.50
2023-10-10T03:13:37.338Z,100833.88
2023-10-10T03:16:42.666Z,100833.88
2023-10-10T03:19:28.879Z,100846.25
2023-10-10T03:22:13.164Z,100731.34
2023-10-10T03:25:05.574Z,100798.47
2023-10-10T03:27:55.881Z,100842.69
2023-10-10T03:30:35.914Z,100838.25
2023-10-10T03:33:17.692Z,100717.22
2023-10-10T03:36:00.682Z,100688.91
2023-10-10T03:38:45.453Z,100825.88
2023-10-10T03:41:48.934Z,100846.25
2023-10-10T03:44:35.910Z,100842.63
2023-10-10T03:47:21.202Z,100836.53
2023-10-10T03:50:17.997Z,100712.78
2023-10-10T03:53:03.388Z,100853.31
2023-10-10T03:55:49.116Z,100844.59
2023-10-10T03:58:34.512Z,100811.00
2023-10-10T04:01:21.264Z,100690.81
2023-10-10T04:04:06.867Z,100838.38
2023-10-10T04:06:52.204Z,100723.47
2023-10-10T04:09:37.838Z,100798.63
2023-10-10T04:12:23.337Z,100597.19
2023-10-10T04:15:08.469Z,100838.38
2023-10-10T04:17:55.665Z,100834.84
2023-10-10T04:20:41.014Z,100832.16
2023-10-10T04:23:26.440Z,100835.69
2023-10-10T04:26:23.308Z,100830.41
2023-10-10T04:29:09.022Z,100831.31
2023-10-10T04:31:54.344Z,100833.09
2023-10-10T04:34:41.142Z,100748.22
2023-10-10T04:37:26.759Z,100835.75
2023-10-10T04:40:11.857Z,100827.78
2023-10-10T04:42:57.519Z,100823.38
2023-10-10T04:45:42.969Z,100741.19
2023-10-10T04:48:28.556Z,100758.84
2023-10-10T04:51:18.036Z,100828.66
2023-10-10T04:54:03.454Z,100828.66
2023-10-10T04:56:48.812Z,100775.66
2023-10-10T04:59:34.418Z,100818.06
2023-10-10T05:02:21.693Z,100839.28
2023-10-10T05:05:07.238Z,100576.94
2023-10-10T05:07:53.731Z,100839.31
2023-10-10T05:10:39.206Z,100841.97
2023-10-10T05:13:27.433Z,100839.31
2023-10-10T05:16:13.168Z,100546.91
2023-10-10T05:18:58.395Z,100581.31
2023-10-10T05:21:43.645Z,100736.78
2023-10-10T05:24:15.810Z,100818.09
2023-10-10T05:26:48.234Z,100834.03
2023-10-10T05:29:20.839Z,100831.38
2023-10-10T05:31:48.947Z,100828.69
2023-10-10T05:34:17.195Z,100680.22
2023-10-10T05:36:45.920Z,100788.94
2023-10-10T05:39:18.922Z,100844.63
2023-10-10T05:41:48.499Z,100831.34
2023-10-10T05:44:18.041Z,100842.84
2023-10-10T05:46:46.099Z,100832.22
2023-10-10T05:49:13.745Z,100834.00
2023-10-10T05:51:42.540Z,100772.09
2023-10-10T05:54:12.175Z,100840.22
2023-10-10T05:56:42.346Z,100840.22
2023-10-10T05:59:10.411Z,100760.66
2023-10-10T06:01:39.666Z,100841.94
2023-10-10T06:04:08.676Z,100550.44
2023-10-10T06:06:38.286Z,100546.91
2023-10-10T06:09:07.192Z,100855.25
2023-10-10T06:11:35.909Z,100846.41
2023-10-10T06:14:06.259Z,100853.44
2023-10-10T06:16:34.177Z,100755.34
2023-10-10T06:19:02.479Z,100641.38
2023-10-10T06:21:31.105Z,100492.22
2023-10-10T06:23:58.943Z,100768.59
2023-10-10T06:26:26.610Z,100856.13
2023-10-10T06:28:55.648Z,100847.28
2023-10-10T06:31:34.763Z,100694.31
2023-10-10T06:34:20.557Z,100853.47
2023-10-10T06:36:49.358Z,100867.63
2023-10-10T06:39:20.717Z,100701.38
2023-10-10T06:41:51.339Z,100852.56
2023-10-10T06:44:33.328Z,100673.06
2023-10-10T06:47:09.970Z,100867.59
2023-10-10T06:49:45.504Z,100793.34
2023-10-10T06:52:19.307Z,100879.13
2023-10-10T06:54:54.833Z,100885.31
2023-10-10T06:57:36.699Z,100842.88
2023-10-10T07:00:19.147Z,100772.16
2023-10-10T07:02:50.880Z,100880.91
2023-10-10T07:05:20.495Z,100886.22
2023-10-10T07:07:53.387Z,100769.47
2023-10-10T07:10:27.370Z,100879.13
2023-10-10T07:12:59.245Z,100876.47
2023-10-10T07:15:27.395Z,100880.00
2023-10-10T07:18:10.228Z,100883.53
2023-10-10T07:20:55.776Z,100837.56
2023-10-10T07:23:23.858Z,100895.03
2023-10-10T07:26:00.445Z,100862.31
2023-10-10T07:28:29.149Z,100892.38
2023-10-10T07:30:57.385Z,100895.94
2023-10-10T07:33:31.163Z,100880.00
2023-10-10T07:36:00.901Z,100878.25
2023-10-10T07:38:30.227Z,100803.97
2023-10-10T07:40:58.025Z,100876.47
2023-10-10T07:43:28.442Z,100774.78
2023-10-10T07:45:56.824Z,100888.81
2023-10-10T07:48:40.501Z,100592.81
2023-10-10T07:51:08.586Z,100818.06
2023-10-10T07:53:43.799Z,100885.25
2023-10-10T07:56:11.620Z,100894.91
2023-10-10T07:58:52.056Z,100889.56
2023-10-10T08:01:20.940Z,100894.84
2023-10-10T08:03:50.440Z,100864.75
2023-10-10T08:06:22.837Z,100895.66
2023-10-10T08:09:10.138Z,100899.19
2023-10-10T08:11:38.040Z,100888.56
2023-10-10T08:14:08.338Z,100887.66
2023-10-10T08:16:36.722Z,100889.41
2023-10-10T08:19:09.574Z,100884.06
2023-10-10T08:21:39.722Z,100884.84
2023-10-10T08:24:13.274Z,100880.28
2023-10-10T08:26:45.584Z,100879.28
2023-10-10T08:29:15.396Z,100875.75
2023-10-10T08:31:44.433Z,100827.16
2023-10-10T08:34:14.762Z,100865.09
2023-10-10T08:36:44.942Z,100879.03
2023-10-10T08:39:25.750Z,100872.69
2023-10-10T08:41:54.379Z,100885.88
2023-10-10T08:44:22.474Z,100872.44
2023-10-10T08:46:50.899Z,100871.56
2023-10-10T08:49:20.562Z,100876.75
2023-10-10T08:51:49.556Z,100871.38
2023-10-10T08:54:18.251Z,100865.78
2023-10-10T08:57:01.261Z,100872.75
2023-10-10T08:59:30.691Z,100878.75
2023-10-10T09:02:09.821Z,100878.66
2023-10-10T09:04:38.877Z,100876.84
2023-10-10T09:07:12.565Z,100880.28
2023-10-10T09:09:41.258Z,100880.19
2023-10-10T09:12:15.567Z,100870.25
2023-10-10T09:14:44.792Z,100866.38
2023-10-10T09:17:14.007Z,100870.81
2023-10-10T09:19:50.101Z,100868.88
2023-10-10T09:22:30.382Z,100863.75
2023-10-10T09:25:00.690Z,100859.06
2023-10-10T09:27:29.870Z,100856.03
2023-10-10T09:29:59.045Z,100865.91
2023-10-10T09:32:37.024Z,100865.81
2023-10-10T09:35:10.097Z,100867.06
2023-10-10T09:37:42.907Z,100864.25
2023-10-10T09:40:17.737Z,100856.56
2023-10-10T09:42:54.990Z,100855.19
2023-10-10T09:48:55.962Z,100861.94
2023-10-10T09:51:44.228Z,100853.66
2023-10-10T09:54:17.234Z,100865.00
2023-10-10T09:56:49.099Z,100851.16
2023-10-10T09:59:19.455Z,100819.00
2023-10-10T10:01:48.199Z,100843.78
2023-10-10T10:04:19.412Z,100851.03
2023-10-10T10:07:07.739Z,100850.75
2023-10-10T10:09:48.182Z,100839.41
2023-10-10T10:12:43.419Z,100851.63
2023-10-10T10:15:19.713Z,100852.97
2023-10-10T10:17:57.809Z,100846.75
2023-10-10T10:20:33.836Z,100839.44
2023-10-10T10:23:02.817Z,100845.50
2023-10-10T10:25:36.450Z,100851.41
2023-10-10T10:28:11.796Z,100848.75
2023-10-10T10:30:52.461Z,100842.88
2023-10-10T10:33:24.274Z,100850.03
2023-10-10T10:36:15.897Z,100855.63
2023-10-10T10:39:03.908Z,100846.19
2023-10-10T10:41:44.555Z,100856.09
2023-10-10T10:44:13.852Z,100853.59
2023-10-10T10:46:49.083Z,100849.56
2023-10-10T10:49:23.247Z,100844.69
2023-10-10T10:52:12.042Z,100856.56
2023-10-10T10:54:46.420Z,100843.72
2023-10-10T10:57:39.528Z,100857.78
2023-10-10T11:00:29.168Z,100854.56
2023-10-10T11:03:01.593Z,100849.09
2023-10-10T11:05:30.226Z,100843.50
2023-10-10T11:08:07.668Z,100853.28
2023-10-10T11:10:38.214Z,100841.56
2023-10-10T11:13:09.105Z,100845.28
2023-10-10T11:15:39.184Z,100835.94
2023-10-10T11:18:09.975Z,100833.63
2023-10-10T11:20:56.796Z,100834.44
2023-10-10T11:23:33.017Z,100785.63
2023-10-10T11:26:02.048Z,100811.47
2023-10-10T11:28:38.567Z,100805.66
2023-10-10T11:31:08.354Z,100819.69
2023-10-10T11:33:50.194Z,100808.91
2023-10-10T11:36:30.333Z,100801.50
2023-10-10T11:39:16.693Z,100801.28
2023-10-10T11:41:47.667Z,100800.81
2023-10-10T11:44:20.144Z,100800.44
2023-10-10T11:46:49.645Z,100791.69
2023-10-10T11:49:17.545Z,100793.72
2023-10-10T11:51:45.211Z,100785.41
2023-10-10T11:54:12.875Z,100792.28
2023-10-10T11:56:41.924Z,100783.50
2023-10-10T11:59:12.112Z,100776.69
2023-10-10T12:01:53.152Z,100767.97
2023-10-10T12:04:33.141Z,100769.78
2023-10-10T12:07:03.473Z,100751.22
2023-10-10T12:09:33.710Z,100768.25
2023-10-10T12:12:04.221Z,100755.81
2023-10-10T12:14:33.620Z,100762.34
2023-10-10T12:17:06.508Z,100756.28
2023-10-10T12:19:38.291Z,100751.44
2023-10-10T12:22:11.705Z,100755.72
2023-10-10T12:24:40.438Z,100747.50
2023-10-10T12:27:10.177Z,100756.06
2023-10-10T12:29:41.629Z,100745.66
2023-10-10T12:32:17.410Z,100756.00
2023-10-10T12:34:46.797Z,100752.09
2023-10-10T12:37:16.673Z,100741.78
2023-10-10T12:39:44.447Z,100736.72
2023-10-10T12:42:12.613Z,100743.50
2023-10-10T12:44:48.866Z,100737.16
2023-10-10T12:47:18.655Z,100730.91
2023-10-10T12:49:46.624Z,100733.31
2023-10-10T12:52:14.331Z,100728.72
2023-10-10T12:54:43.553Z,100725.81
2023-10-10T12:57:15.534Z,100729.69
2023-10-10T12:59:47.965Z,100722.81
2023-10-10T13:02:17.771Z,100719.75
2023-10-10T13:04:48.415Z,100709.78
2023-10-10T13:07:17.800Z,100702.44
2023-10-10T13:09:47.749Z,100706.97
2023-10-10T13:12:28.834Z,100710.41
2023-10-10T13:15:17.657Z,100696.47
2023-10-10T13:17:54.472Z,100693.56
2023-10-10T13:20:23.055Z,100692.88
2023-10-10T13:22:52.392Z,100696.00
2023-10-10T13:25:21.371Z,100687.81
2023-10-10T13:27:53.242Z,100659.84
2023-10-10T13:30:22.465Z,100695.03
2023-10-10T13:32:50.607Z,100685.31
2023-10-10T13:35:21.029Z,100699.63
2023-10-10T13:37:48.915Z,100695.63
2023-10-10T13:40:22.459Z,100685.19
2023-10-10T13:42:50.395Z,100684.25
2023-10-10T13:45:27.900Z,100688.41
2023-10-10T13:47:58.927Z,100688.50
2023-10-10T13:50:42.205Z,100685.84
2023-10-10T13:53:13.502Z,100682.81
2023-10-10T13:55:42.963Z,100684.25
2023-10-10T13:58:13.075Z,100671.50
2023-10-10T14:00:42.445Z,100670.00
2023-10-10T14:03:15.864Z,100674.78
2023-10-10T14:06:01.509Z,100668.03
2023-10-10T14:08:31.564Z,100668.41
2023-10-10T14:11:00.346Z,100664.34
2023-10-10T14:13:28.975Z,100597.56
2023-10-10T14:15:57.471Z,100674.78
2023-10-10T14:18:28.718Z,100658.44
2023-10-10T14:20:57.000Z,100667.91
2023-10-10T14:23:26.254Z,100646.84
2023-10-10T14:26:04.345Z,100656.88
2023-10-10T14:28:33.343Z,100654.28
2023-10-10T14:31:01.782Z,100652.56
2023-10-10T14:33:30.880Z,100655.31
2023-10-10T14:35:58.740Z,100663.94
2023-10-10T14:38:26.407Z,100661.78
2023-10-10T14:40:53.998Z,100653.75
2023-10-10T14:43:21.725Z,100654.78
2023-10-10T14:45:51.298Z,100624.28
2023-10-10T14:48:20.910Z,100645.00
2023-10-10T14:50:53.637Z,100649.28
2023-10-10T14:53:23.549Z,100650.97
2023-10-10T14:55:52.728Z,100651.94
2023-10-10T14:58:22.876Z,100648.16
2023-10-10T15:00:53.758Z,100644.31
2023-10-10T15:03:24.631Z,100650.25
2023-10-10T15:05:54.170Z,100641.34
2023-10-10T15:08:23.943Z,100646.28
2023-10-10T15:10:54.434Z,100612.59
2023-10-10T15:13:23.170Z,100642.78
2023-10-10T15:15:50.765Z,100642.59
2023-10-10T15:18:19.547Z,100649.06
2023-10-10T15:20:49.936Z,100637.63
2023-10-10T15:23:21.432Z,100637.16
2023-10-10T15:25:55.239Z,100631.69
2023-10-10T15:28:24.530Z,100632.34
2023-10-10T15:30:52.262Z,100635.16
2023-10-10T15:33:20.116Z,100632.31
2023-10-10T15:35:51.329Z,100630.34
2023-10-10T15:38:23.860Z,100623.28
2023-10-10T15:40:53.335Z,100633.19
2023-10-10T15:43:32.364Z,100633.13
2023-10-10T15:46:01.770Z,100630.69
2023-10-10T15:48:29.660Z,100622.91
2023-10-10T15:50:58.445Z,100629.69
2023-10-10T15:53:27.832Z,100635.22
2023-10-10T15:56:12.913Z,100629.00
2023-10-10T15:58:43.250Z,100629.34
2023-10-10T16:01:15.477Z,100631.91
2023-10-10T16:03:48.573Z,100635.88
2023-10-10T16:06:19.744Z,100574.69
2023-10-10T16:08:50.722Z,100635.13
2023-10-10T16:11:18.506Z,100631.91
2023-10-10T16:13:47.364Z,100629.41
2023-10-10T16:16:15.586Z,100633.16
2023-10-10T16:18:46.909Z,100628.03
2023-10-10T16:21:16.213Z,100632.94
2023-10-10T16:23:45.480Z,100637.63
2023-10-10T16:26:16.265Z,100638.84
2023-10-10T16:28:44.002Z,100631.00
2023-10-10T16:31:12.845Z,100639.38
2023-10-10T16:33:41.646Z,100636.59
2023-10-10T16:36:10.631Z,100635.09
2023-10-10T16:38:39.523Z,100641.44
2023-10-10T16:41:08.853Z,100637.50
2023-10-10T16:43:54.149Z,100645.19
2023-10-10T16:46:31.401Z,100637.59
2023-10-10T16:48:59.782Z,100608.47
2023-10-10T16:51:28.234Z,100648.44
2023-10-10T16:53:56.721Z,100644.31
2023-10-10T16:56:24.828Z,100655.31
2023-10-10T16:58:53.979Z,100652.22
2023-10-10T17:01:23.501Z,100653.88
2023-10-10T17:03:55.813Z,100651.69
2023-10-10T17:06:26.507Z,100652.16
2023-10-10T17:08:56.127Z,100656.09
2023-10-10T17:11:24.782Z,100659.06
2023-10-10T17:13:55.092Z,100660.22
2023-10-10T17:16:29.998Z,100656.69
2023-10-10T17:19:14.660Z,100659.69
2023-10-10T17:21:47.799Z,100656.31
2023-10-10T17:24:17.181Z,100642.47
2023-10-10T17:26:45.612Z,100655.09
2023-10-10T17:29:14.902Z,100660.13
2023-10-10T17:31:42.914Z,100662.06
2023-10-10T17:34:16.559Z,100662.69
2023-10-10T17:36:44.865Z,100663.13
2023-10-10T17:39:16.340Z,100665.28
2023-10-10T17:41:48.959Z,100647.44
2023-10-10T17:44:19.579Z,100654.81
2023-10-10T17:46:48.618Z,100659.19
2023-10-10T17:49:16.724Z,100656.41
2023-10-10T17:51:46.138Z,100661.09
2023-10-10T17:54:16.888Z,100656.56
2023-10-10T17:56:45.811Z,100652.44
2023-10-10T17:59:13.714Z,100649.03
2023-10-10T18:01:44.731Z,100654.53
2023-10-10T18:04:14.539Z,100652.09
2023-10-10T18:06:42.559Z,100652.34
2023-10-10T18:09:10.313Z,100666.81
2023-10-10T18:11:38.656Z,100657.06
2023-10-10T18:14:08.290Z,100650.56
2023-10-10T18:16:36.754Z,100656.66
2023-10-10T18:19:06.418Z,100666.81
2023-10-10T18:21:34.561Z,100662.53
2023-10-10T18:24:07.066Z,100654.38
2023-10-10T18:26:38.634Z,100652.94
2023-10-10T18:29:06.498Z,100659.31
2023-10-10T18:31:35.567Z,100660.13
2023-10-10T18:34:05.263Z,100656.41
2023-10-10T18:36:37.660Z,100649.84
2023-10-10T18:39:12.842Z,100650.13
2023-10-10T18:41:42.459Z,100652.16
2023-10-10T18:44:10.966Z,100657.63
2023-10-10T18:46:39.069Z,100652.34
2023-10-10T18:49:07.319Z,100659.41
2023-10-10T18:51:36.445Z,100639.06
2023-10-10T18:54:09.457Z,100656.84
2023-10-10T18:56:38.925Z,100649.66
2023-10-10T18:59:06.754Z,100652.50
2023-10-10T19:01:38.436Z,100645.38
2023-10-10T19:04:08.238Z,100642.94
2023-10-10T19:06:39.938Z,100649.31
2023-10-10T19:09:12.289Z,100653.03
2023-10-10T19:11:40.556Z,100643.34
2023-10-10T19:14:10.551Z,100662.25
2023-10-10T19:16:38.321Z,100666.72
2023-10-10T19:19:06.387Z,100659.50
2023-10-10T19:21:34.085Z,100659.06
2023-10-10T19:24:03.376Z,100664.66
2023-10-10T19:26:31.545Z,100658.25
2023-10-10T19:28:59.945Z,100660.88
2023-10-10T19:31:27.657Z,100652.91
2023-10-10T19:33:55.380Z,100617.66
2023-10-10T19:36:23.238Z,100659.16
2023-10-10T19:38:51.420Z,100654.75
2023-10-10T19:41:20.424Z,100651.84
2023-10-10T19:43:52.337Z,100657.13
2023-10-10T19:46:21.111Z,100662.44
2023-10-10T19:48:52.099Z,100661.66
2023-10-10T19:51:21.089Z,100661.94
2023-10-10T19:53:51.662Z,100661.09
2023-10-10T19:56:22.181Z,100648.84
2023-10-10T19:58:50.026Z,100649.72
2023-10-10T20:01:18.008Z,100654.97
2023-10-10T20:03:47.059Z,100645.19
2023-10-10T20:06:16.531Z,100642.59
2023-10-10T20:08:44.280Z,100650.44
2023-10-10T20:11:13.047Z,100646.00
2023-10-10T20:13:42.046Z,100648.78
2023-10-10T20:16:15.661Z,100647.31
2023-10-10T20:18:45.283Z,100655.19
2023-10-10T20:21:14.083Z,100659.59
2023-10-10T20:23:43.334Z,100655.22
2023-10-10T20:26:12.912Z,100657.09
2023-10-10T20:28:41.976Z,100647.47
2023-10-10T20:31:10.629Z,100647.47
2023-10-10T20:33:38.609Z,100653.91
2023-10-10T20:36:07.826Z,100654.78
2023-10-10T20:38:35.665Z,100649.41
2023-10-10T20:41:05.242Z,100642.28
2023-10-10T20:43:33.104Z,100647.47
2023-10-10T20:46:02.044Z,100650.06
2023-10-10T20:48:29.803Z,100641.03
2023-10-10T20:50:57.495Z,100631.38
2023-10-10T20:53:25.138Z,100632.91
2023-10-10T20:55:52.790Z,100641.94
2023-10-10T20:58:20.382Z,100633.16
2023-10-10T21:00:48.106Z,100641.06
2023-10-10T21:03:17.270Z,100621.69
2023-10-10T21:05:45.301Z,100626.00
2023-10-10T21:08:13.073Z,100625.16
2023-10-10T21:10:41.668Z,100612.66
2023-10-10T21:13:09.575Z,100625.06
2023-10-10T21:15:37.507Z,100623.06
2023-10-10T21:18:09.034Z,100632.78
2023-10-10T21:20:52.079Z,100623.16
2023-10-10T21:23:28.212Z,100624.38
2023-10-10T21:25:55.869Z,100612.72
2023-10-10T21:28:23.935Z,100616.19
2023-10-10T21:30:52.041Z,100622.13
2023-10-10T21:33:20.064Z,100614.13
2023-10-10T21:35:50.634Z,100598.34
2023-10-10T21:38:18.950Z,100607.41
2023-10-10T21:40:46.558Z,100610.09
2023-10-10T21:43:14.837Z,100613.97
2023-10-10T21:45:42.631Z,100615.16
2023-10-10T21:48:11.914Z,100608.00
2023-10-10T21:50:41.758Z,100605.31
2023-10-10T21:53:10.951Z,100619.63
2023-10-10T21:55:39.471Z,100614.22
2023-10-10T21:58:07.343Z,100605.38
2023-10-10T22:00:56.206Z,100607.28
2023-10-10T22:03:26.493Z,100603.63
2023-10-10T22:05:54.395Z,100592.16
2023-10-10T22:08:26.944Z,100609.94
2023-10-10T22:10:55.408Z,100595.91
2023-10-10T22:13:24.589Z,100595.06
2023-10-10T22:15:52.878Z,100597.63
2023-10-10T22:18:21.111Z,100595.91
2023-10-10T22:20:48.780Z,100587.00
2023-10-10T22:23:16.869Z,100587.81
2023-10-10T22:25:45.828Z,100603.75
2023-10-10T22:28:13.487Z,100591.25
2023-10-10T22:30:42.016Z,100582.22
2023-10-10T22:33:11.556Z,100578.53
2023-10-10T22:35:40.578Z,100553.00
2023-10-10T22:38:13.978Z,100583.66
2023-10-10T22:40:41.728Z,100575.69
2023-10-10T22:43:16.145Z,100577.78
2023-10-10T22:45:45.672Z,100578.81
2023-10-10T22:48:15.841Z,100583.25
2023-10-10T22:50:43.990Z,100575.41
2023-10-10T22:53:11.976Z,100573.31
2023-10-10T22:55:42.625Z,100571.75
2023-10-10T22:58:16.079Z,100567.50
2023-10-10T23:00:43.709Z,100570.22
2023-10-10T23:03:12.018Z,100563.28
2023-10-10T23:05:43.029Z,100577.41
2023-10-10T23:08:12.181Z,100572.00
2023-10-10T23:10:41.259Z,100549.28
2023-10-10T23:13:13.882Z,100572.09
2023-10-10T23:15:42.737Z,100581.84
2023-10-10T23:18:12.072Z,100578.31
2023-10-10T23:20:42.178Z,100583.53
2023-10-10T23:23:10.620Z,100577.28
2023-10-10T23:25:38.220Z,100571.84
2023-10-10T23:28:06.253Z,100575.47
2023-10-10T23:30:34.518Z,100560.53
2023-10-10T23:33:04.643Z,100505.03
2023-10-10T23:35:34.283Z,100504.13
2023-10-10T23:38:06.180Z,100572.75
2023-10-10T23:40:40.119Z,100580.88
2023-10-10T23:43:08.589Z,100424.97
2023-10-10T23:45:42.791Z,100547.22
2023-10-10T23:48:16.940Z,100571.94
2023-10-10T23:50:45.726Z,100571.19
2023-10-10T23:53:15.288Z,100478.72
2023-10-10T23:55:47.894Z,100473.44
2023-10-10T23:58:16.796Z,100547.44
